Nicoya, Costa Rica
Current Conditions -  °F | °C
As of 10:00 AM on Thursday 30 Oct 2014 (Local Time) from MRLB Reporting Station
Broken Clouds Broken Clouds  
Wind Chill: 86°   Ceiling: 25000
Heat Index: 95°   Visibility: 6mi
Dew Point: 75°   Wind: 5mph
Humidity: 70%   Direction: 350°N
Pressure: 29.83"   Gusts: NA
Location:  10.14°N, 85.46°W
Report Text: MRLB 301600Z 35004KT 9999 SCT025 BKN250 30/24 A2983
Loading
Personal Weather Stations






























Interactive Weather Map
Tropical Storm Tracking
New forecast layout! Learn more

10-Day Weather Forecast

Advertisements
Track Severe Weather on mobile